.
WxDataArchive / Data Records for 2015-03-08
2015-03-07 March 2015 2015-03-09

Data Records for Sunday, 08 March 2015

Time	Temp	Chill	HIndex	Humid	Dewpt	 Wind 	HiWind	WindDir	Rain 	Barom
-----	----	-----	------	-----	-----	------	------	-------	-----	-----
00:00	33.7	33.7	33.7	83	29.1	0	1	248	0.00	30.121 
00:05	33.7	33.7	33.7	83	29.1	0	1	248	0.00	30.121 
00:10	33.7	33.7	33.7	82	28.8	0	2	248	0.00	30.121 
00:15	33.5	33.5	33.5	82	28.6	0	1	248	0.00	30.120 
00:20	33.5	33.5	33.5	82	28.6	0	1	248	0.00	30.120 
00:25	33.5	33.5	33.5	82	28.6	0	1	248	0.00	30.120 
00:30	33.4	33.4	33.4	82	28.5	0	1	248	0.00	30.121 
00:35	33.2	33.2	33.2	82	28.3	0	0	---	0.00	30.121 
00:40	33.1	33.1	33.1	82	28.2	0	0	---	0.00	30.121 
00:45	32.8	32.8	32.8	82	27.9	0	0	---	0.00	30.120 
00:50	32.7	32.7	32.7	82	27.8	0	0	---	0.00	30.120 
00:55	32.4	32.4	32.4	83	27.8	0	0	---	0.00	30.120 
01:00	32.2	32.2	32.2	83	27.6	0	0	---	0.00	30.117 
01:05	32.1	32.1	32.1	83	27.5	0	0	---	0.00	30.117 
01:10	31.8	31.8	31.8	83	27.2	0	0	---	0.00	30.117 
01:15	31.5	31.5	31.5	83	26.9	0	0	---	0.00	30.121 
01:20	31.3	31.3	31.3	84	27.0	0	0	---	0.00	30.121 
01:25	31.2	31.2	31.2	84	26.9	0	0	---	0.00	30.121 
01:30	30.9	30.9	30.9	84	26.6	0	0	---	0.00	30.124 
01:35	30.6	30.6	30.6	84	26.4	0	0	---	0.00	30.124 
01:40	30.3	30.3	30.3	84	26.1	0	0	---	0.00	30.124 
01:45	29.8	29.8	29.8	84	25.6	0	0	---	0.00	30.125 
01:50	29.5	29.5	29.5	84	25.3	0	0	---	0.00	30.125 
01:55	29.3	29.3	29.3	84	25.1	0	0	---	0.00	30.125 
03:00	29.1	29.1	29.1	85	25.2	0	0	---	0.00	30.129 
03:05	29.3	29.3	29.3	86	25.6	0	0	---	0.00	30.129 
03:10	29.1	29.1	29.1	86	25.4	0	0	---	0.00	30.129 
03:15	29.0	29.0	29.0	86	25.3	0	0	---	0.00	30.131 
03:20	28.7	28.7	28.7	86	25.1	0	0	---	0.00	30.131 
03:25	28.4	28.4	28.4	86	24.8	0	1	248	0.00	30.131 
03:30	28.5	28.5	28.5	87	25.1	0	0	---	0.00	30.138 
03:35	28.8	28.8	28.8	88	25.7	0	0	---	0.00	30.138 
03:40	29.1	29.1	29.1	88	26.0	0	1	248	0.00	30.138 
03:45	29.5	29.5	29.5	88	26.4	0	1	248	0.00	30.137 
03:50	29.8	29.8	29.8	89	27.0	0	1	248	0.00	30.137 
03:55	29.8	29.8	29.8	88	26.7	0	1	248	0.00	30.137 
04:00	29.8	29.8	29.8	88	26.7	0	0	---	0.00	30.136 
04:05	29.8	29.8	29.8	88	26.7	0	1	248	0.00	30.136 
04:10	29.8	29.8	29.8	88	26.7	0	1	248	0.00	30.136 
04:15	29.8	29.8	29.8	88	26.7	0	0	---	0.00	30.137 
04:20	29.8	29.8	29.8	88	26.7	0	0	---	0.00	30.137 
04:25	29.7	29.7	29.7	88	26.6	0	1	248	0.00	30.137 
04:30	29.7	29.7	29.7	89	26.9	0	0	---	0.00	30.135 
04:35	29.5	29.5	29.5	89	26.7	0	1	248	0.00	30.135 
04:40	29.5	29.5	29.5	89	26.7	0	1	248	0.00	30.135 
04:45	29.5	29.5	29.5	89	26.7	0	1	248	0.00	30.138 
04:50	29.5	29.5	29.5	89	26.7	0	1	248	0.00	30.138 
04:55	29.5	29.5	29.5	89	26.7	0	1	248	0.00	30.138 
05:00	29.5	29.5	29.5	89	26.7	0	1	248	0.00	30.137 
05:05	29.8	29.8	29.8	90	27.2	0	3	248	0.00	30.137 
05:10	29.8	29.8	29.8	89	27.0	0	1	248	0.00	30.137 
05:15	29.8	29.8	29.8	89	27.0	0	1	248	0.00	30.131 
05:20	30.0	30.0	30.0	90	27.4	0	2	248	0.00	30.131 
05:25	30.0	30.0	30.0	89	27.2	0	2	248	0.00	30.131 
05:30	30.0	30.0	30.0	89	27.2	0	1	248	0.00	30.134 
05:35	30.0	30.0	30.0	89	27.2	0	2	248	0.00	30.134 
05:40	30.0	30.0	30.0	89	27.2	0	1	248	0.00	30.134 
05:45	29.8	29.8	29.8	89	27.0	0	1	248	0.00	30.137 
05:50	29.8	29.8	29.8	89	27.0	0	1	248	0.00	30.137 
05:55	29.8	29.8	29.8	89	27.0	0	2	248	0.00	30.137 
06:00	29.7	29.7	29.7	89	26.9	0	1	248	0.00	30.141 
06:05	29.7	29.7	29.7	89	26.9	0	1	248	0.00	30.141 
06:10	29.5	29.5	29.5	89	26.7	0	1	248	0.00	30.141 
06:15	29.5	29.5	29.5	89	26.7	0	1	248	0.00	30.143 
06:20	29.4	29.4	29.4	89	26.6	0	1	248	0.00	30.143 
06:25	29.3	29.3	29.3	89	26.5	0	1	248	0.00	30.143 
06:30	29.3	29.3	29.3	89	26.5	0	2	248	0.00	30.149 
06:35	29.3	29.3	29.3	89	26.5	0	1	248	0.00	30.149 
06:40	29.3	29.3	29.3	89	26.5	0	2	248	0.00	30.149 
06:45	29.3	29.3	29.3	89	26.5	0	1	248	0.00	30.151 
06:50	29.3	29.3	29.3	89	26.5	0	1	248	0.00	30.151 
06:55	29.3	29.3	29.3	89	26.5	0	1	248	0.00	30.151 
07:00	29.3	29.3	29.3	89	26.5	0	1	248	0.00	30.161 
07:05	29.1	29.1	29.1	89	26.3	0	1	248	0.00	30.161 
07:10	29.1	29.1	29.1	89	26.3	0	1	248	0.00	30.161 
07:15	29.1	29.1	29.1	89	26.3	0	1	248	0.00	30.174 
07:20	29.1	29.1	29.1	89	26.3	0	1	248	0.00	30.174 
07:25	29.1	29.1	29.1	89	26.3	0	1	248	0.00	30.174 
07:30	29.1	29.1	29.1	89	26.3	0	1	248	0.00	30.177 
07:35	29.1	29.1	29.1	89	26.3	0	2	248	0.00	30.177 
07:40	29.1	29.1	29.1	89	26.3	0	1	248	0.00	30.177 
07:45	29.1	29.1	29.1	89	26.3	0	1	248	0.00	30.183 
07:50	29.1	29.1	29.1	89	26.3	0	1	248	0.00	30.183 
07:55	29.1	29.1	29.1	89	26.3	0	2	248	0.00	30.183 
08:00	29.0	29.0	29.0	89	26.2	0	1	248	0.00	30.180 
08:05	29.0	29.0	29.0	89	26.2	0	1	248	0.00	30.180 
08:10	29.0	29.0	29.0	89	26.2	0	2	248	0.00	30.180 
08:15	28.8	28.8	28.8	88	25.7	0	1	248	0.00	30.176 
08:20	28.8	28.8	28.8	88	25.7	0	1	248	0.00	30.176 
08:25	28.7	28.7	28.7	88	25.6	0	1	248	0.00	30.176 
08:30	28.7	28.7	28.7	88	25.6	0	1	248	0.00	30.179 
08:35	28.7	28.7	28.7	88	25.6	0	1	248	0.00	30.179 
08:40	28.8	28.8	28.8	88	25.7	0	1	248	0.00	30.179 
08:45	29.0	29.0	29.0	88	25.9	0	1	248	0.00	30.183 
08:50	29.1	29.1	29.1	88	26.0	0	1	248	0.00	30.183 
08:55	29.3	29.3	29.3	88	26.2	0	1	248	0.00	30.183 
09:00	29.4	29.4	29.4	88	26.3	0	2	248	0.00	30.182 
09:05	29.5	29.5	29.5	88	26.4	0	2	248	0.00	30.182 
09:10	29.5	29.5	29.5	88	26.4	0	2	248	0.00	30.182 
09:15	29.8	29.8	29.8	87	26.4	1	3	248	0.00	30.191 
09:20	30.1	30.1	30.1	87	26.7	1	3	248	0.00	30.191 
09:25	30.3	30.3	30.3	87	26.9	0	2	248	0.00	30.191 
09:30	30.6	30.6	30.6	86	26.9	0	2	248	0.00	30.197 
09:35	30.9	30.9	30.9	86	27.2	1	3	248	0.00	30.197 
09:40	31.3	31.3	31.3	85	27.3	1	2	248	0.00	30.197 
09:45	31.8	31.8	31.8	85	27.8	1	3	248	0.00	30.202 
09:50	32.2	32.2	32.2	84	27.9	1	2	248	0.00	30.202 
09:55	32.4	32.4	32.4	83	27.8	1	2	248	0.00	30.202 
10:00	32.7	32.7	32.7	82	27.8	1	3	248	0.00	30.194 
10:05	32.8	32.8	32.8	81	27.6	1	2	248	0.00	30.194 
10:10	32.8	32.8	32.8	81	27.6	0	2	248	0.00	30.194 
10:15	33.1	33.1	33.1	80	27.6	1	2	248	0.00	30.209 
10:20	33.7	33.7	33.7	79	27.9	1	4	248	0.00	30.209 
10:25	34.3	34.3	34.3	78	28.2	1	3	248	0.00	30.209 
10:30	34.6	34.6	34.6	77	28.1	1	4	292	0.00	30.211 
10:35	34.7	34.7	34.7	75	27.6	1	3	315	0.00	30.211 
10:40	34.9	34.9	34.9	75	27.8	1	3	270	0.00	30.211 
10:45	35.2	35.2	35.2	74	27.8	1	3	270	0.00	30.220 
10:50	35.3	35.3	35.3	73	27.5	1	5	270	0.00	30.220 
10:55	35.5	35.5	35.5	72	27.4	1	3	292	0.00	30.220 
11:00	35.5	35.5	35.5	72	27.4	1	3	292	0.00	30.220 
11:05	35.6	35.6	35.6	71	27.1	1	2	292	0.00	30.220 
11:10	35.9	35.9	35.9	71	27.4	1	2	292	0.00	30.220 
11:15	36.2	36.2	36.2	69	27.0	1	3	292	0.00	30.233 
11:20	36.6	36.6	36.6	68	27.1	1	3	292	0.00	30.233 
11:25	36.8	36.8	36.8	67	26.9	1	3	292	0.00	30.233 
11:30	37.2	37.2	37.2	65	26.5	1	3	292	0.00	30.232 
11:35	37.6	37.6	37.6	64	26.5	0	2	292	0.00	30.232 
11:40	38.0	38.0	38.0	62	26.2	1	2	292	0.00	30.232 
11:45	38.3	38.3	38.3	62	26.4	1	3	292	0.00	30.223 
11:50	38.8	38.8	38.8	62	26.9	1	2	292	0.00	30.223 
11:55	39.2	39.2	39.2	60	26.5	0	2	292	0.00	30.223 
12:00	39.6	39.6	39.6	59	26.5	0	2	292	0.00	30.219 
12:05	39.9	39.9	39.9	56	25.5	0	2	292	0.00	30.219 
12:10	40.2	40.2	40.2	56	25.8	1	2	292	0.00	30.219 
12:15	40.3	40.3	40.3	56	25.9	0	2	270	0.00	30.220 
12:20	40.6	40.6	40.6	56	26.1	0	2	270	0.00	30.220 
12:25	40.8	40.8	40.8	55	25.9	0	2	270	0.00	30.220 
12:30	41.3	41.3	41.3	54	25.9	0	2	270	0.00	30.216 
12:35	41.5	41.5	41.5	52	25.2	0	2	270	0.00	30.216 
12:40	41.8	41.8	41.8	51	25.0	0	2	270	0.00	30.216 
12:45	41.9	41.9	41.9	49	24.1	1	3	270	0.00	30.202 
12:50	41.6	41.6	41.6	50	24.4	1	2	270	0.00	30.202 
12:55	41.6	41.6	41.6	47	22.9	1	5	270	0.00	30.202 
13:00	41.3	41.3	41.3	48	23.1	1	3	338	0.00	30.202 
13:05	41.2	41.2	41.2	48	23.0	1	3	292	0.00	30.202 
13:10	41.1	41.1	41.1	47	22.4	1	2	292	0.00	30.202 
13:15	41.2	41.2	41.2	47	22.5	1	2	292	0.00	30.202 
13:20	41.3	41.3	41.3	47	22.6	1	2	292	0.00	30.202 
13:25	41.2	41.2	41.2	47	22.5	1	4	292	0.00	30.202 
13:30	41.3	41.3	41.3	48	23.1	1	3	292	0.00	30.202 
13:35	41.6	41.6	41.6	47	22.9	1	3	292	0.00	30.202 
13:40	41.6	41.6	41.6	46	22.4	0	3	292	0.00	30.202 
13:45	41.3	41.3	41.3	47	22.6	1	3	292	0.00	30.190 
13:50	41.5	41.5	41.5	47	22.8	1	2	292	0.00	30.190 
13:55	41.9	41.9	41.9	45	22.1	1	3	292	0.00	30.190 
14:00	41.8	41.8	41.8	46	22.6	1	2	292	0.00	30.192 
14:05	41.6	41.6	41.6	46	22.4	0	2	270	0.00	30.192 
14:10	41.3	41.3	41.3	45	21.6	2	3	270	0.00	30.192 
14:15	41.3	41.3	41.3	47	22.6	0	1	270	0.00	30.190 
14:20	41.6	41.6	41.6	45	21.9	1	2	270	0.00	30.190 
14:25	41.6	41.6	41.6	45	21.9	1	3	270	0.00	30.190 
14:30	41.5	41.5	41.5	45	21.8	2	3	270	0.00	30.198 
14:35	41.5	41.5	41.5	47	22.8	0	2	270	0.00	30.198 
14:40	41.8	41.8	41.8	46	22.6	1	2	270	0.00	30.198 
14:45	42.1	42.1	42.1	46	22.8	1	3	270	0.00	30.184 
14:50	42.2	42.2	42.2	46	22.9	1	3	270	0.00	30.184 
14:55	41.9	41.9	41.9	46	22.6	1	3	270	0.00	30.184 
15:00	41.8	41.8	41.8	45	22.0	0	2	270	0.00	30.176 
15:05	41.8	41.8	41.8	45	22.0	0	2	270	0.00	30.176 
15:10	41.8	41.8	41.8	45	22.0	0	2	270	0.00	30.176 
15:15	41.6	41.6	41.6	46	22.4	1	2	270	0.00	30.172 
15:20	41.6	41.6	41.6	46	22.4	1	3	270	0.00	30.172 
15:25	41.6	41.6	41.6	46	22.4	1	3	270	0.00	30.172 
15:30	41.5	41.5	41.5	46	22.3	1	3	270	0.00	30.160 
15:35	41.5	41.5	41.5	47	22.8	1	2	270	0.00	30.160 
15:40	41.8	41.8	41.8	47	23.1	1	3	270	0.00	30.160 
15:45	41.8	41.8	41.8	47	23.1	2	5	270	0.00	30.158 
15:50	41.8	41.8	41.8	47	23.1	1	3	270	0.00	30.158 
15:55	41.6	41.6	41.6	47	22.9	2	6	248	0.00	30.158 
16:00	41.5	41.5	41.5	47	22.8	1	5	248	0.00	30.149 
16:05	41.6	41.6	41.6	48	23.4	1	3	248	0.00	30.149 
16:10	41.9	41.9	41.9	50	24.6	0	2	248	0.00	30.149 
16:15	42.2	42.2	42.2	49	24.4	0	3	270	0.00	30.142 
16:20	42.5	42.5	42.5	47	23.7	1	3	270	0.00	30.142 
16:25	42.5	42.5	42.5	48	24.2	0	2	270	0.00	30.142 
16:30	42.6	42.6	42.6	48	24.3	0	3	270	0.00	30.144 
16:35	42.9	42.9	42.9	48	24.6	1	4	248	0.00	30.144 
16:40	42.9	42.9	42.9	50	25.6	0	2	248	0.00	30.144 
16:45	43.2	43.2	43.2	52	26.8	0	2	248	0.00	30.139 
16:50	43.1	43.1	43.1	53	27.1	1	6	68	0.00	30.139 
16:55	42.8	42.8	42.8	54	27.3	0	2	68	0.00	30.139 
17:00	42.6	42.6	42.6	54	27.1	0	2	68	0.00	30.140 
17:05	42.5	42.5	42.5	56	27.9	0	2	68	0.00	30.140 
17:10	42.2	42.2	42.2	56	27.6	0	2	68	0.00	30.140 
17:15	41.8	41.8	41.8	58	28.1	1	4	68	0.00	30.134 
17:20	41.8	41.8	41.8	58	28.1	0	2	68	0.00	30.134 
17:25	41.6	41.6	41.6	57	27.5	0	2	68	0.00	30.134 
17:30	41.8	41.8	41.8	57	27.7	0	2	45	0.00	30.132 
17:35	41.9	41.9	41.9	57	27.8	0	2	45	0.00	30.132 
17:40	42.1	42.1	42.1	56	27.5	0	2	45	0.00	30.132 
17:45	42.1	42.1	42.1	56	27.5	0	1	45	0.00	30.134 
17:50	42.1	42.1	42.1	55	27.1	0	2	45	0.00	30.134 
17:55	42.1	42.1	42.1	55	27.1	0	3	45	0.00	30.134 
18:00	41.9	41.9	41.9	55	26.9	0	2	45	0.00	30.135 
18:05	41.9	41.9	41.9	56	27.4	0	1	292	0.00	30.135 
18:10	41.9	41.9	41.9	56	27.4	0	2	292	0.00	30.135 
18:15	42.2	42.2	42.2	57	28.1	0	2	292	0.00	30.133 
18:20	42.3	42.3	42.3	57	28.2	0	2	292	0.00	30.133 
18:25	42.2	42.2	42.2	58	28.5	0	1	292	0.00	30.133 
18:30	41.9	41.9	41.9	58	28.2	1	3	270	0.00	30.131 
18:35	41.6	41.6	41.6	58	27.9	1	4	248	0.00	30.131 
18:40	41.5	41.5	41.5	58	27.8	0	3	248	0.00	30.131 
18:45	41.3	41.3	41.3	58	27.7	0	1	248	0.00	30.131 
18:50	41.2	41.2	41.2	58	27.6	0	2	248	0.00	30.131 
18:55	41.1	41.1	41.1	58	27.5	0	2	248	0.00	30.131 
19:00	40.8	40.8	40.8	58	27.2	1	2	248	0.00	30.133 
19:05	40.5	40.5	40.5	59	27.3	0	2	248	0.00	30.133 
19:10	40.3	40.3	40.3	60	27.5	0	2	248	0.00	30.133 
19:15	40.2	40.2	40.2	60	27.4	0	2	248	0.00	30.142 
19:20	40.1	40.1	40.1	60	27.3	0	2	248	0.00	30.142 
19:25	39.9	39.9	39.9	60	27.2	0	2	248	0.00	30.142 
19:30	39.9	39.9	39.9	60	27.2	0	2	248	0.00	30.137 
19:35	39.8	39.8	39.8	60	27.1	0	1	248	0.00	30.137 
19:40	39.6	39.6	39.6	60	26.9	0	2	248	0.00	30.137 
19:45	39.6	39.6	39.6	61	27.3	0	1	248	0.00	30.138 
19:50	39.5	39.5	39.5	61	27.2	0	1	248	0.00	30.138 
19:55	39.5	39.5	39.5	62	27.6	0	1	248	0.00	30.138 
20:00	39.3	39.3	39.3	62	27.4	0	1	248	0.00	30.135 
20:05	39.3	39.3	39.3	62	27.4	0	1	248	0.00	30.135 
20:10	39.2	39.2	39.2	62	27.3	0	1	248	0.00	30.135 
20:15	39.2	39.2	39.2	63	27.7	0	1	248	0.00	30.134 
20:20	39.1	39.1	39.1	63	27.6	0	1	248	0.00	30.134 
20:25	39.1	39.1	39.1	64	28.0	0	2	248	0.00	30.134 
20:30	39.1	39.1	39.1	64	28.0	0	2	248	0.00	30.142 
20:35	39.1	39.1	39.1	64	28.0	0	2	248	0.00	30.142 
20:40	39.1	39.1	39.1	65	28.3	0	1	248	0.00	30.142 
20:45	39.1	39.1	39.1	65	28.3	0	1	248	0.00	30.145 
20:50	38.9	38.9	38.9	65	28.2	0	1	248	0.00	30.145 
20:55	38.9	38.9	38.9	66	28.5	0	1	248	0.00	30.145 
21:00	38.9	38.9	38.9	66	28.5	0	1	248	0.00	30.146 
21:05	38.9	38.9	38.9	66	28.5	0	2	248	0.00	30.146 
21:10	38.8	38.8	38.8	66	28.4	0	1	248	0.00	30.146 
21:15	38.8	38.8	38.8	67	28.8	0	1	248	0.00	30.141 
21:20	38.8	38.8	38.8	67	28.8	0	1	248	0.00	30.141 
21:25	38.8	38.8	38.8	67	28.8	0	1	248	0.00	30.141 
21:30	38.8	38.8	38.8	67	28.8	0	1	248	0.00	30.141 
21:35	38.8	38.8	38.8	67	28.8	0	1	248	0.00	30.141 
21:40	38.6	38.6	38.6	67	28.6	0	1	248	0.00	30.141 
21:45	38.8	38.8	38.8	67	28.8	0	1	248	0.00	30.140 
21:50	38.6	38.6	38.6	67	28.6	0	1	248	0.00	30.140 
21:55	38.6	38.6	38.6	67	28.6	0	1	248	0.00	30.140 
22:00	38.5	38.5	38.5	68	28.9	0	0	---	0.00	30.141 
22:05	38.3	38.3	38.3	69	29.0	0	0	---	0.00	30.141 
22:10	38.3	38.3	38.3	69	29.0	0	0	---	0.00	30.141 
22:15	38.3	38.3	38.3	69	29.0	0	0	---	0.00	30.137 
22:20	38.2	38.2	38.2	70	29.3	0	0	---	0.00	30.137 
22:25	38.2	38.2	38.2	70	29.3	0	1	248	0.00	30.137 
22:30	38.2	38.2	38.2	70	29.3	0	1	248	0.00	30.136 
22:35	38.2	38.2	38.2	70	29.3	0	1	248	0.00	30.136 
22:40	38.2	38.2	38.2	70	29.3	0	1	248	0.00	30.136 
22:45	38.3	38.3	38.3	70	29.4	0	1	248	0.00	30.136 
22:50	38.5	38.5	38.5	69	29.2	0	2	248	0.00	30.136 
22:55	38.5	38.5	38.5	69	29.2	0	1	248	0.00	30.136 
23:00	38.5	38.5	38.5	69	29.2	0	2	248	0.00	30.137 
23:05	38.5	38.5	38.5	69	29.2	0	1	248	0.00	30.137 
23:10	38.5	38.5	38.5	68	28.9	0	0	---	0.00	30.137 
23:15	38.5	38.5	38.5	68	28.9	0	1	248	0.00	30.136 
23:20	38.5	38.5	38.5	68	28.9	0	1	248	0.00	30.136 
23:25	38.5	38.5	38.5	68	28.9	0	1	248	0.00	30.136 
23:30	38.5	38.5	38.5	68	28.9	0	0	---	0.00	30.133 
23:35	38.3	38.3	38.3	68	28.7	0	1	248	0.00	30.133 
23:40	38.3	38.3	38.3	68	28.7	0	1	248	0.00	30.133 
23:45	38.3	38.3	38.3	68	28.7	0	1	248	0.00	30.135 
23:50	38.3	38.3	38.3	67	28.3	0	1	248	0.00	30.135 
23:55	38.5	38.5	38.5	67	28.5	0	2	248	0.00	30.135 
20150309 00:00	38.8	38.8	38.8	66	28.4	0	2	248	0.00	30.133 
20150309 00:05	39.1	39.1	39.1	64	28.0	0	2	248	0.00	30.133 
20150309 00:10	39.3	39.3	39.3	63	27.8	0	1	248	0.00	30.133 
20150309 00:15	39.5	39.5	39.5	62	27.6	0	2	248	0.00	30.129 
20150309 00:20	39.8	39.8	39.8	61	27.5	0	2	248	0.00	30.129 
20150309 00:25	39.8	39.8	39.8	60	27.1	0	3	248	0.00	30.129 
20150309 00:30	39.8	39.8	39.8	60	27.1	0	0	---	0.00	30.132 
20150309 00:35	39.8	39.8	39.8	61	27.5	0	1	248	0.00	30.132 
20150309 00:40	39.6	39.6	39.6	61	27.3	0	1	248	0.00	30.132 
20150309 00:45	39.5	39.5	39.5	61	27.2	0	1	248	0.00	30.128 
20150309 00:50	39.2	39.2	39.2	62	27.3	0	1	248	0.00	30.128 
20150309 00:55	39.1	39.1	39.1	62	27.2	0	0	---	0.00	30.128 

CoCoRaHS
IN-AL-39
A2 Web Hosting
Creative Commons License
GoDaddy
search engine by freefind advanced

loaded 2018-11-13 22:39:25 • last modified 2010-11-18 10:43:29
Privacy PolicyDisclaimer
• wx.awcolley.com is powered by PmWiki v.2002016 •
• all content (unless otherwise noted) © 2018 A W Colley